Overview Statistics Trail Chart Weather Telemetry Raw packets
 

This is the latest recevied weather packets stored in our database for station/object HA2SKA-1. If no packets are shown the sender has not sent any weather packets the latest 10 day(s).

<< 22 23 24 25 26 27 28 >>
Time Temp. Humidity Pressure Rain* Wind** Luminosity Snow
1788136507 22.78° C 100% 1017.7 hPa - - - -
1788135607 22.78° C 100% 1017.7 hPa - - - -
1788134707 23.89° C 93% 1017.8 hPa - - - -
1788133807 22.22° C 100% 1017.8 hPa - - - -
1788132907 23.89° C 94% 1017.9 hPa - - - -
1788132007 22.22° C 100% 1018 hPa - - - -
1788131106 23.89° C 97% 1018.1 hPa - - - -
1788130206 23.89° C 94% 1018 hPa - - - -
1788129306 23.33° C 99% 1018.1 hPa - - - -
1788128406 23.89° C 93% 1018.2 hPa - - - -
1788127506 23.89° C 94% 1018.2 hPa - - - -
1788126606 23.89° C 95% 1018.1 hPa - - - -
1788125706 22.78° C 100% 1018.2 hPa - - - -
1788124806 22.22° C 100% 1018.3 hPa - - - -
1788123906 23.33° C 97% 1018.1 hPa - - - -
1788123007 23.33° C 96% 1018 hPa - - - -
1788122106 23.89° C 92% 1017.9 hPa - - - -
1788121205 23.89° C 92% 1018 hPa - - - -
1788120305 24.44° C 90% 1017.9 hPa - - - -
1788119405 24.44° C 91% 1017.9 hPa - - - -
1788118519 25° C 83% 1018 hPa - - - -
1788117605 24.44° C 89% 1017.9 hPa - - - -
1788116705 24.44° C 89% 1017.8 hPa - - - -
1788115805 25° C 83% 1017.8 hPa - - - -
1788114905 25° C 81% 1017.7 hPa - - - -

* Rain since midnight (hover to see other rain measurements)
** Current wind speed in m/s (hover to see current wind gust speed)